Time;durP1;ratioP1;P1;durP2;ratioP2;P2;SDS_P1;SDS_P2;PMS_P1;PMS_P2;Temp;Humidity;BMP_temperature;BMP_pressure;BME280_temperature;BME280_humidity;BME280_pressure;Samples;Min_cycle;Max_cycle;Signal;HPM_P1;HPM_P2
2022/02/13 00:00:48;;;;;;;7.23;3.23;;;;;;;0.18;85.24;102070.63;4992918;28;20183;-73
2022/02/13 00:03:13;;;;;;;5.63;3.13;;;;;;;0.19;85.69;102067.38;4993941;28;20191;-73
2022/02/13 00:05:39;;;;;;;6.57;3.70;;;;;;;0.25;86.08;102057.78;4993955;28;20183;-74
2022/02/13 00:08:05;;;;;;;9.53;4.50;;;;;;;0.37;85.73;102055.38;5000623;28;20188;-73
2022/02/13 00:10:31;;;;;;;6.27;3.30;;;;;;;0.31;85.06;102049.84;4991256;28;20837;-73
2022/02/13 00:12:57;;;;;;;6.30;3.33;;;;;;;0.32;84.76;102046.56;4992766;28;20218;-74
2022/02/13 00:15:23;;;;;;;5.27;2.93;;;;;;;0.28;85.53;102043.81;4993950;28;20187;-73
2022/02/13 00:17:48;;;;;;;5.80;2.90;;;;;;;0.39;85.22;102037.09;4994058;28;20549;-73
2022/02/13 00:20:13;;;;;;;6.87;3.20;;;;;;;0.34;85.29;102036.72;5008900;28;20290;-73
2022/02/13 00:22:38;;;;;;;5.50;2.80;;;;;;;0.39;85.07;102032.06;5009105;28;20243;-73
2022/02/13 00:25:04;;;;;;;4.60;3.37;;;;;;;0.40;84.91;102025.41;5009181;28;20199;-73
2022/02/13 00:27:30;;;;;;;6.80;2.90;;;;;;;0.52;84.22;102012.97;4993260;28;20526;-73
2022/02/13 00:29:55;;;;;;;7.13;3.03;;;;;;;0.47;84.74;102012.50;4993649;28;20194;-72
2022/02/13 00:32:23;;;;;;;5.90;3.23;;;;;;;0.42;85.09;102008.75;5008645;28;20242;-73
2022/02/13 00:34:48;;;;;;;5.20;2.90;;;;;;;0.37;84.86;102002.47;4992112;28;20183;-73
2022/02/13 00:37:14;;;;;;;6.67;3.10;;;;;;;0.37;85.68;102003.38;4992264;28;20678;-73
2022/02/13 00:39:39;;;;;;;9.67;3.43;;;;;;;0.43;84.55;102000.44;4993758;28;20226;-73
2022/02/13 00:42:05;;;;;;;7.33;3.03;;;;;;;0.51;85.04;102000.28;4993518;28;20196;-74
2022/02/13 00:44:30;;;;;;;5.60;3.20;;;;;;;0.43;84.55;101992.09;4993676;28;20234;-73
2022/02/13 00:46:56;;;;;;;6.43;3.17;;;;;;;0.45;85.35;101989.72;4991981;28;20245;-74
2022/02/13 00:49:22;;;;;;;8.53;3.40;;;;;;;0.47;84.94;101996.63;4985715;28;20662;-72
2022/02/13 00:51:49;;;;;;;7.13;3.60;;;;;;;0.39;84.87;101996.81;4986226;28;20307;-73
2022/02/13 00:54:14;;;;;;;7.73;3.43;;;;;;;0.28;84.56;102001.75;4993440;28;20278;-73
2022/02/13 00:56:40;;;;;;;6.47;3.40;;;;;;;0.38;85.16;101994.16;5008194;28;20188;-73
2022/02/13 00:59:05;;;;;;;7.00;3.13;;;;;;;0.30;84.86;102003.63;5007958;28;20211;-73
2022/02/13 01:01:30;;;;;;;6.70;3.10;;;;;;;0.22;85.67;101992.06;4993179;28;20208;-73
2022/02/13 01:03:56;;;;;;;5.80;3.53;;;;;;;0.34;85.24;101990.53;5008118;28;20215;-73
2022/02/13 01:06:21;;;;;;;6.13;3.40;;;;;;;0.35;84.76;101984.72;5003268;28;20231;-74
2022/02/13 01:08:47;;;;;;;5.10;3.10;;;;;;;0.32;85.87;101991.16;4990772;28;20176;-73
2022/02/13 01:11:12;;;;;;;6.07;3.17;;;;;;;0.28;85.72;101990.91;4992958;28;20777;-73
2022/02/13 01:13:38;;;;;;;7.13;2.97;;;;;;;0.31;86.19;101990.28;4993206;28;20283;-73
2022/02/13 01:16:03;;;;;;;5.50;3.33;;;;;;;0.31;85.36;101990.28;5007832;28;20283;-74
2022/02/13 01:18:29;;;;;;;6.50;3.73;;;;;;;0.37;85.64;101985.75;5005636;28;20247;-73
2022/02/13 01:20:54;;;;;;;7.33;3.90;;;;;;;0.34;85.24;101982.97;4991163;28;20223;-73
2022/02/13 01:23:20;;;;;;;6.70;3.53;;;;;;;0.34;85.19;101976.28;4975458;28;20196;-73
2022/02/13 01:25:45;;;;;;;4.53;3.30;;;;;;;0.30;85.22;101963.34;4986068;28;20585;-73
2022/02/13 01:28:12;;;;;;;7.53;4.03;;;;;;;0.42;85.55;101954.22;4992641;28;20236;-74
2022/02/13 01:30:37;;;;;;;6.03;3.27;;;;;;;0.36;85.59;101953.75;4993003;28;20316;-72
2022/02/13 01:33:03;;;;;;;5.63;3.80;;;;;;;0.36;85.41;101948.69;4989433;28;20294;-72
2022/02/13 01:35:29;;;;;;;5.87;3.63;;;;;;;0.36;85.38;101937.78;4992557;28;20192;-73
2022/02/13 01:37:54;;;;;;;9.70;4.17;;;;;;;0.40;85.57;101939.78;4992528;28;20210;-73
2022/02/13 01:40:20;;;;;;;4.43;3.37;;;;;;;0.37;84.83;101942.94;4990958;28;20192;-74
2022/02/13 01:42:46;;;;;;;8.50;4.10;;;;;;;0.39;84.81;101943.91;4992511;28;20214;-73
2022/02/13 01:45:11;;;;;;;6.73;3.77;;;;;;;0.36;85.25;101943.66;5008964;28;20203;-73
2022/02/13 01:47:38;;;;;;;7.10;4.10;;;;;;;0.38;85.93;101938.75;4992778;28;20246;-73
2022/02/13 01:50:07;;;;;;;7.63;4.13;;;;;;;0.38;85.25;101938.75;4995371;28;20196;-73
2022/02/13 01:52:32;;;;;;;4.83;3.70;;;;;;;0.34;85.11;101938.50;4984349;28;20976;-73
2022/02/13 01:54:58;;;;;;;5.43;3.53;;;;;;;0.41;85.72;101926.41;4991265;28;20270;-73
2022/02/13 01:57:25;;;;;;;11.23;4.23;;;;;;;0.40;85.25;101935.59;4988718;28;20705;-73
2022/02/13 01:59:51;;;;;;;8.57;3.73;;;;;;;0.34;85.38;101928.44;4984135;28;20203;-73
2022/02/13 02:02:17;;;;;;;8.10;3.70;;;;;;;0.31;85.87;101921.44;4992696;28;20220;-73
2022/02/13 02:04:43;;;;;;;6.13;3.60;;;;;;;0.24;86.30;101922.59;5003562;28;20207;-73
2022/02/13 02:07:10;;;;;;;6.57;4.07;;;;;;;0.30;86.23;101918.03;4993368;28;20258;-73
2022/02/13 02:09:35;;;;;;;7.33;3.60;;;;;;;0.31;85.85;101917.25;4985336;28;20219;-73
2022/02/13 02:12:04;;;;;;;10.43;4.50;;;;;;;0.27;85.48;101907.72;4980004;28;20809;-73
2022/02/13 02:14:30;;;;;;;9.63;4.30;;;;;;;0.32;86.59;101910.59;4988434;28;20772;-73
2022/02/13 02:16:55;;;;;;;8.57;4.10;;;;;;;0.25;86.09;101909.25;5000187;28;20282;-73
2022/02/13 02:19:21;;;;;;;5.10;3.90;;;;;;;0.28;85.55;101923.69;4996275;28;20239;-73
2022/02/13 02:21:46;;;;;;;9.07;4.10;;;;;;;0.27;86.07;101919.44;4974046;28;20235;-72
2022/02/13 02:24:14;;;;;;;8.53;4.07;;;;;;;0.26;86.33;101926.09;4983970;28;20188;-72
2022/02/13 02:26:39;;;;;;;5.60;3.93;;;;;;;0.16;86.19;101926.16;4984477;28;20200;-73
2022/02/13 02:29:05;;;;;;;8.37;4.87;;;;;;;0.17;86.23;101917.84;4998507;28;20190;-72
2022/02/13 02:31:30;;;;;;;8.47;4.43;;;;;;;0.13;86.33;101908.28;4994372;28;20216;-73
2022/02/13 02:33:56;;;;;;;9.27;4.80;;;;;;;0.10;86.60;101895.47;4990296;28;20220;-74
2022/02/13 02:36:21;;;;;;;10.77;4.70;;;;;;;0.14;86.70;101889.94;4991312;28;20294;-73
2022/02/13 02:38:47;;;;;;;9.13;4.13;;;;;;;0.17;85.80;101886.78;4988792;28;20219;-73
2022/02/13 02:41:13;;;;;;;7.60;4.57;;;;;;;0.14;86.46;101888.28;4985449;28;20988;-73
2022/02/13 02:43:39;;;;;;;7.80;3.83;;;;;;;0.11;86.16;101887.16;4990078;28;20338;-74
2022/02/13 02:46:05;;;;;;;8.33;3.97;;;;;;;0.15;86.30;101890.03;4991168;28;20199;-73
2022/02/13 02:48:31;;;;;;;10.27;4.70;;;;;;;0.14;85.86;101892.44;4987192;28;20187;-73
2022/02/13 02:50:56;;;;;;;7.43;4.63;;;;;;;0.15;86.75;101876.56;4986165;28;20578;-73
2022/02/13 02:53:22;;;;;;;8.93;4.50;;;;;;;0.24;86.27;101872.25;4986402;28;20199;-73
2022/02/13 02:55:47;;;;;;;8.87;4.40;;;;;;;0.24;85.87;101870.59;4986606;28;20207;-74
2022/02/13 02:58:12;;;;;;;7.17;4.43;;;;;;;0.24;85.75;101854.63;4984668;28;20587;-73
2022/02/13 03:00:38;;;;;;;8.73;4.63;;;;;;;0.21;85.51;101846.81;4986115;28;20624;-74
2022/02/13 03:03:03;;;;;;;6.13;4.07;;;;;;;0.31;86.41;101838.34;4988442;28;20196;-73
2022/02/13 03:05:29;;;;;;;10.10;4.37;;;;;;;0.28;85.77;101822.22;4981235;28;20208;-74
2022/02/13 03:07:54;;;;;;;10.70;4.90;;;;;;;0.24;85.43;101822.75;4975767;28;20187;-73
2022/02/13 03:10:20;;;;;;;10.03;4.83;;;;;;;0.22;86.19;101824.28;4989158;28;20210;-74
2022/02/13 03:12:45;;;;;;;7.77;4.77;;;;;;;0.26;86.79;101822.00;4977616;28;20215;-72
2022/02/13 03:15:10;;;;;;;8.90;5.00;;;;;;;0.29;85.26;101815.56;5004833;28;20192;-73
2022/02/13 03:17:36;;;;;;;7.13;4.53;;;;;;;0.31;85.41;101814.00;4989603;28;20218;-73
2022/02/13 03:20:03;;;;;;;8.13;4.70;;;;;;;0.31;85.43;101808.13;4989634;28;20575;-73
2022/02/13 03:22:28;;;;;;;7.63;4.63;;;;;;;0.32;85.70;101799.81;4994529;28;20210;-73
2022/02/13 03:24:58;;;;;;;9.70;4.73;;;;;;;0.31;85.31;101803.09;4982682;28;20187;-74
2022/02/13 03:27:24;;;;;;;8.57;4.50;;;;;;;0.28;84.99;101799.56;4993913;28;20188;-73
2022/02/13 03:29:50;;;;;;;7.40;4.33;;;;;;;0.31;85.57;101805.59;4999637;28;20190;-73
2022/02/13 03:32:15;;;;;;;8.07;4.70;;;;;;;0.28;85.37;101810.41;4974088;28;20769;-73
2022/02/13 03:34:40;;;;;;;10.20;5.00;;;;;;;0.28;85.68;101797.81;4984637;28;20718;-73
2022/02/13 03:37:05;;;;;;;8.87;5.10;;;;;;;0.27;85.63;101796.06;4990521;28;20286;-73
2022/02/13 03:39:31;;;;;;;8.47;4.60;;;;;;;0.19;85.43;101787.94;4988968;28;20263;-73
2022/02/13 03:41:57;;;;;;;10.77;4.77;;;;;;;0.29;85.18;101770.22;4986846;28;20283;-73
2022/02/13 03:44:22;;;;;;;11.43;5.33;;;;;;;0.22;85.12;101755.41;4993298;28;20199;-73
2022/02/13 03:46:48;;;;;;;6.63;4.30;;;;;;;0.24;85.03;101761.47;4992159;28;20195;-73
2022/02/13 03:49:13;;;;;;;7.10;4.40;;;;;;;0.27;85.14;101750.75;4992892;28;20219;-73
2022/02/13 03:51:38;;;;;;;7.20;4.40;;;;;;;0.28;84.71;101754.25;4985406;28;20698;-74
2022/02/13 03:54:04;;;;;;;9.57;4.73;;;;;;;0.26;85.62;101757.41;4992014;28;20187;-73
2022/02/13 03:56:29;;;;;;;10.13;4.80;;;;;;;0.27;85.12;101755.78;4992684;28;20668;-73
2022/02/13 03:58:55;;;;;;;6.43;4.43;;;;;;;0.25;85.33;101755.66;4991085;28;20223;-73
2022/02/13 04:01:20;;;;;;;8.77;4.80;;;;;;;0.20;85.00;101747.75;4987548;28;20954;-73
2022/02/13 04:03:45;;;;;;;8.87;4.77;;;;;;;0.31;85.25;101740.13;4988303;28;20195;-73
2022/02/13 04:06:11;;;;;;;9.43;4.53;;;;;;;0.31;85.03;101738.47;4987989;28;20234;-73
2022/02/13 04:08:36;;;;;;;8.17;5.17;;;;;;;0.25;85.09;101743.06;4993999;28;20200;-73
2022/02/13 04:11:02;;;;;;;7.17;4.60;;;;;;;0.36;84.26;101738.84;4981824;28;20215;-73
2022/02/13 04:13:27;;;;;;;8.60;4.77;;;;;;;0.29;85.07;101742.53;4994250;28;20189;-72
2022/02/13 04:15:53;;;;;;;8.20;4.67;;;;;;;0.32;84.28;101746.16;4982063;28;20191;-73
2022/02/13 04:18:19;;;;;;;9.23;4.80;;;;;;;0.34;84.64;101744.59;4994701;28;20600;-73
2022/02/13 04:20:45;;;;;;;7.57;4.67;;;;;;;0.33;85.11;101739.50;4988332;28;20669;-73
2022/02/13 04:23:11;;;;;;;7.40;4.47;;;;;;;0.27;84.76;101733.13;4984703;28;20344;-73
2022/02/13 04:25:37;;;;;;;10.70;4.77;;;;;;;0.32;84.46;101732.66;4982875;28;20216;-73
2022/02/13 04:28:04;;;;;;;7.60;4.90;;;;;;;0.24;84.53;101729.59;4973930;28;20200;-73
2022/02/13 04:30:30;;;;;;;9.43;4.80;;;;;;;0.22;84.84;101733.66;4989129;28;20195;-73
2022/02/13 04:32:56;;;;;;;10.40;4.63;;;;;;;0.23;85.06;101735.41;4997297;28;20214;-73
2022/02/13 04:35:25;;;;;;;11.80;5.10;;;;;;;0.22;84.61;101733.66;4980559;28;20200;-74
2022/02/13 04:37:52;;;;;;;8.03;4.77;;;;;;;0.22;84.67;101744.50;4978729;28;20212;-73
2022/02/13 04:40:17;;;;;;;7.87;5.00;;;;;;;0.23;84.84;101737.91;4989646;28;20207;-73
2022/02/13 04:42:43;;;;;;;7.40;4.17;;;;;;;0.15;85.49;101728.91;4984961;28;20211;-73
2022/02/13 04:45:08;;;;;;;12.43;4.83;;;;;;;0.09;84.85;101733.50;4995396;28;20665;-73
2022/02/13 04:47:34;;;;;;;9.83;4.73;;;;;;;0.11;84.98;101731.97;4990710;28;20196;-73
2022/02/13 04:49:59;;;;;;;8.40;4.93;;;;;;;0.13;85.60;101738.78;4993676;28;20306;-73
2022/02/13 04:52:24;;;;;;;8.70;5.13;;;;;;;0.05;84.88;101734.03;4977656;28;20296;-73
2022/02/13 04:54:50;;;;;;;8.07;4.63;;;;;;;0.05;85.08;101723.97;4987663;28;20214;-73
2022/02/13 04:57:15;;;;;;;7.73;5.07;;;;;;;0.09;85.76;101715.00;4992452;28;20635;-73
2022/02/13 04:59:40;;;;;;;9.83;5.33;;;;;;;0.04;85.51;101717.19;4990953;28;20296;-73
2022/02/13 05:02:05;;;;;;;8.57;4.80;;;;;;;0.06;85.32;101709.75;4991961;28;20219;-73
2022/02/13 05:04:32;;;;;;;9.80;4.80;;;;;;;-0.01;85.49;101699.97;4992760;28;20331;-73
2022/02/13 05:06:57;;;;;;;6.73;4.80;;;;;;;0.00;85.36;101702.59;4991661;28;20188;-73
2022/02/13 05:09:22;;;;;;;9.90;5.03;;;;;;;-0.06;85.52;101702.16;4994242;28;20279;-73
2022/02/13 05:11:48;;;;;;;7.13;5.20;;;;;;;-0.09;85.47;101698.56;4991380;28;20222;-73
2022/02/13 05:14:14;;;;;;;9.57;5.17;;;;;;;-0.12;85.72;101688.25;4994252;28;20192;-73
2022/02/13 05:16:39;;;;;;;7.77;5.03;;;;;;;-0.23;86.42;101687.44;4993977;28;20994;-73
2022/02/13 05:19:05;;;;;;;8.73;5.27;;;;;;;-0.25;85.96;101685.56;4992839;28;20227;-73
2022/02/13 05:21:30;;;;;;;10.13;5.07;;;;;;;-0.19;86.15;101691.94;4991167;28;20227;-73
2022/02/13 05:23:56;;;;;;;8.03;4.63;;;;;;;-0.22;85.58;101688.31;4995694;28;20196;-73
2022/02/13 05:26:21;;;;;;;9.17;5.03;;;;;;;-0.23;85.98;101691.63;4994642;28;20215;-73
2022/02/13 05:28:46;;;;;;;7.03;4.73;;;;;;;-0.27;85.75;101684.59;4992787;28;20188;-74
2022/02/13 05:31:12;;;;;;;8.83;4.87;;;;;;;-0.26;85.81;101676.28;4995601;28;20277;-73
2022/02/13 05:33:37;;;;;;;10.07;5.37;;;;;;;-0.21;85.59;101669.94;4990690;28;20215;-73
2022/02/13 05:36:03;;;;;;;8.93;5.40;;;;;;;-0.25;86.13;101668.84;4989817;28;20188;-74
2022/02/13 05:38:28;;;;;;;9.63;5.60;;;;;;;-0.25;85.57;101656.28;4991300;28;20215;-73
2022/02/13 05:40:53;;;;;;;9.77;5.20;;;;;;;-0.23;85.90;101671.50;4982007;28;20647;-73
2022/02/13 05:43:19;;;;;;;8.67;5.40;;;;;;;-0.21;85.98;101662.41;5004208;28;20200;-73
2022/02/13 05:45:44;;;;;;;10.27;5.10;;;;;;;-0.17;86.00;101671.94;4989906;28;20191;-73
2022/02/13 05:48:12;;;;;;;9.83;5.17;;;;;;;-0.21;85.67;101672.47;4979879;28;20550;-73
2022/02/13 05:50:37;;;;;;;8.90;5.00;;;;;;;-0.19;85.88;101684.38;4993455;28;20533;-72
2022/02/13 05:53:03;;;;;;;8.90;5.27;;;;;;;-0.27;85.67;101677.91;4986740;28;20298;-72
2022/02/13 05:55:28;;;;;;;10.50;5.33;;;;;;;-0.23;86.13;101676.53;5004274;28;20199;-74
2022/02/13 05:57:54;;;;;;;10.47;5.53;;;;;;;-0.26;85.56;101664.56;4990165;28;20285;-72
2022/02/13 06:00:19;;;;;;;6.67;4.90;;;;;;;-0.32;85.60;101658.22;4999511;28;20611;-73
2022/02/13 06:02:45;;;;;;;10.83;5.30;;;;;;;-0.25;85.97;101658.78;4989165;28;20811;-73
2022/02/13 06:05:10;;;;;;;8.77;4.73;;;;;;;-0.26;86.07;101664.56;4986304;28;20197;-73
2022/02/13 06:07:40;;;;;;;10.60;5.50;;;;;;;-0.28;85.94;101675.25;4973625;28;20211;-73
2022/02/13 06:10:08;;;;;;;11.13;5.03;;;;;;;-0.27;85.98;101667.84;4987388;28;20571;-73
2022/02/13 06:12:33;;;;;;;9.40;4.77;;;;;;;-0.25;85.79;101662.94;4991109;28;20203;-74
2022/02/13 06:14:58;;;;;;;8.20;5.40;;;;;;;-0.21;85.81;101649.81;5000817;28;20923;-73
2022/02/13 06:17:24;;;;;;;9.03;5.27;;;;;;;-0.32;85.91;101658.22;4996428;28;20579;-73
2022/02/13 06:19:49;;;;;;;8.63;5.00;;;;;;;-0.37;86.27;101657.84;4992718;28;20771;-73
2022/02/13 06:22:15;;;;;;;9.90;5.37;;;;;;;-0.39;86.53;101661.91;4988493;28;20203;-73
2022/02/13 06:24:40;;;;;;;8.07;4.97;;;;;;;-0.21;85.79;101657.38;4987344;28;20206;-73
2022/02/13 06:27:06;;;;;;;8.47;5.27;;;;;;;-0.28;86.10;101650.13;4988925;28;20199;-72
2022/02/13 06:29:31;;;;;;;8.70;5.43;;;;;;;-0.28;85.99;101660.19;4989436;28;20210;-73
2022/02/13 06:31:57;;;;;;;8.33;5.40;;;;;;;-0.24;86.49;101665.56;4989989;28;20211;-73
2022/02/13 06:34:23;;;;;;;9.83;5.30;;;;;;;-0.25;86.17;101651.25;4997490;28;20202;-73
2022/02/13 06:36:48;;;;;;;9.23;5.13;;;;;;;-0.29;85.53;101651.78;4990508;28;20192;-73
2022/02/13 06:39:14;;;;;;;8.23;4.33;;;;;;;-0.31;85.44;101635.66;4990257;28;20246;-72
2022/02/13 06:41:39;;;;;;;7.60;4.90;;;;;;;-0.26;85.51;101648.59;4988751;28;20207;-74
2022/02/13 06:44:04;;;;;;;7.30;4.37;;;;;;;-0.22;85.95;101650.59;4989444;28;20595;-72
2022/02/13 06:46:29;;;;;;;8.23;5.10;;;;;;;-0.17;85.70;101647.63;4984873;28;20202;-73
2022/02/13 06:48:55;;;;;;;7.17;4.47;;;;;;;-0.17;85.67;101655.19;4990542;28;20427;-72
2022/02/13 06:51:20;;;;;;;11.80;5.10;;;;;;;-0.12;84.85;101653.91;4986584;28;20223;-72
2022/02/13 06:53:45;;;;;;;8.13;4.50;;;;;;;-0.10;84.80;101657.41;5004838;28;20178;-73
2022/02/13 06:56:13;;;;;;;8.00;4.63;;;;;;;-0.06;85.27;101654.34;4991119;28;20198;-73
2022/02/13 06:58:39;;;;;;;11.30;5.43;;;;;;;0.00;84.74;101656.47;4989550;28;20210;-73
2022/02/13 07:01:04;;;;;;;10.40;5.20;;;;;;;0.04;84.13;101656.78;4989630;28;20314;-73
2022/02/13 07:03:29;;;;;;;8.33;5.17;;;;;;;0.10;84.36;101652.19;4989861;28;20257;-73
2022/02/13 07:05:55;;;;;;;8.13;4.73;;;;;;;0.17;84.57;101648.47;4991152;28;20184;-73
2022/02/13 07:08:20;;;;;;;6.87;4.90;;;;;;;0.12;84.45;101639.72;4990938;28;20207;-72
2022/02/13 07:10:45;;;;;;;8.67;4.90;;;;;;;0.19;84.17;101655.38;4990836;28;20192;-73
2022/02/13 07:13:11;;;;;;;8.27;4.80;;;;;;;0.29;83.76;101651.91;5005969;28;20196;-72
2022/02/13 07:15:37;;;;;;;6.43;4.17;;;;;;;0.28;83.22;101656.81;5006013;28;20204;-73
2022/02/13 07:18:03;;;;;;;7.20;5.10;;;;;;;0.34;82.97;101646.41;4990462;28;20262;-73
2022/02/13 07:20:28;;;;;;;8.93;4.37;;;;;;;0.42;82.63;101648.63;5005780;28;20223;-72
2022/02/13 07:22:54;;;;;;;7.53;4.60;;;;;;;0.49;82.26;101656.72;4990985;28;20207;-72
2022/02/13 07:25:19;;;;;;;9.50;4.70;;;;;;;0.55;83.10;101657.16;4990554;28;20187;-73
2022/02/13 07:27:44;;;;;;;8.40;5.00;;;;;;;0.57;81.86;101649.69;4990499;28;20195;-73
2022/02/13 07:30:13;;;;;;;7.23;4.30;;;;;;;0.64;81.72;101641.84;4990342;28;20653;-72
2022/02/13 07:32:40;;;;;;;7.27;4.30;;;;;;;0.68;81.57;101642.13;4989163;28;20828;-72
2022/02/13 07:35:06;;;;;;;7.93;4.40;;;;;;;0.80;81.28;101630.41;4990452;28;20249;-73
2022/02/13 07:37:31;;;;;;;7.33;4.57;;;;;;;0.84;81.03;101629.88;4990313;28;20238;-73
2022/02/13 07:39:57;;;;;;;7.73;4.77;;;;;;;0.90;80.93;101631.91;4989099;28;20270;-74
2022/02/13 07:42:22;;;;;;;6.47;4.53;;;;;;;0.91;80.05;101633.69;4989336;28;20218;-74
2022/02/13 07:44:49;;;;;;;8.20;4.10;;;;;;;1.02;80.02;101628.63;4989105;28;20209;-75
2022/02/13 07:47:15;;;;;;;8.17;4.60;;;;;;;1.06;79.55;101625.53;4989015;28;20188;-74
2022/02/13 07:49:41;;;;;;;7.70;4.73;;;;;;;1.21;79.70;101630.75;4990261;28;20537;-74
2022/02/13 07:52:07;;;;;;;6.43;4.30;;;;;;;1.26;78.54;101612.66;4988898;28;20712;-74
2022/02/13 07:54:32;;;;;;;7.03;3.90;;;;;;;1.39;79.00;101624.44;4990144;28;20195;-74
2022/02/13 07:56:58;;;;;;;6.27;4.40;;;;;;;1.47;77.94;101623.34;4990138;28;20202;-75
2022/02/13 07:59:24;;;;;;;7.77;4.60;;;;;;;1.57;78.00;101626.56;4988695;28;20221;-75
2022/02/13 08:01:49;;;;;;;6.20;4.30;;;;;;;1.67;77.11;101623.00;4990074;28;20211;-74
2022/02/13 08:04:14;;;;;;;7.83;4.60;;;;;;;1.71;76.20;101619.91;4990397;28;20184;-75
2022/02/13 08:06:40;;;;;;;8.77;4.30;;;;;;;1.73;76.67;101616.72;4990131;28;20183;-74
2022/02/13 08:09:05;;;;;;;7.73;4.40;;;;;;;1.83;76.36;101624.13;4989226;28;20237;-75
2022/02/13 08:11:30;;;;;;;8.10;4.50;;;;;;;1.82;75.38;101624.00;4982768;28;20211;-75
2022/02/13 08:13:57;;;;;;;8.67;4.57;;;;;;;1.99;75.76;101620.97;4990099;28;20658;-74
2022/02/13 08:16:22;;;;;;;7.40;4.60;;;;;;;2.08;75.48;101617.41;4990094;28;20188;-75
2022/02/13 08:18:48;;;;;;;6.13;4.30;;;;;;;2.02;74.28;101622.03;4990205;28;20218;-74
2022/02/13 08:21:14;;;;;;;6.77;3.90;;;;;;;2.16;74.87;101622.94;5008870;28;20246;-74
2022/02/13 08:23:40;;;;;;;8.73;4.40;;;;;;;2.33;75.08;101623.25;4992765;28;20252;-77
2022/02/13 08:26:06;;;;;;;6.43;4.30;;;;;;;2.37;73.74;101630.25;4992950;28;20187;-74
2022/02/13 08:28:34;;;;;;;8.03;3.97;;;;;;;2.44;73.12;101621.41;4971664;28;20227;-74
2022/02/13 08:31:01;;;;;;;7.30;4.27;;;;;;;2.50;73.14;101611.69;4984919;28;20203;-73
2022/02/13 08:33:26;;;;;;;9.60;4.47;;;;;;;2.64;72.47;101603.31;4992998;28;20192;-75
2022/02/13 08:35:52;;;;;;;8.93;4.33;;;;;;;2.69;71.54;101604.47;5024667;28;20196;-75
2022/02/13 08:38:18;;;;;;;7.70;4.70;;;;;;;2.87;69.89;101603.09;4992723;28;20720;-76
2022/02/13 08:40:43;;;;;;;7.17;4.00;;;;;;;2.80;71.45;101608.56;4992838;28;20188;-77
2022/02/13 08:43:09;;;;;;;6.93;4.17;;;;;;;2.84;71.41;101597.81;4993241;28;20199;-76
2022/02/13 08:45:36;;;;;;;6.20;3.90;;;;;;;2.99;70.37;101592.06;4991955;28;20235;-77
2022/02/13 08:48:01;;;;;;;7.47;4.57;;;;;;;3.23;70.41;101596.09;4991907;28;20270;-76
2022/02/13 08:50:27;;;;;;;6.87;3.80;;;;;;;3.25;68.86;101589.47;4993524;28;20275;-75
2022/02/13 08:52:53;;;;;;;6.67;4.67;;;;;;;3.58;68.65;101583.00;4993309;28;20219;-75
2022/02/13 08:55:19;;;;;;;6.33;3.83;;;;;;;3.72;67.25;101585.53;4992459;28;20254;-74
2022/02/13 08:57:45;;;;;;;8.33;4.03;;;;;;;4.09;67.23;101579.25;4992060;28;20740;-75
2022/02/13 09:00:13;;;;;;;6.77;3.87;;;;;;;3.87;66.05;101576.28;4993022;28;20192;-73
2022/02/13 09:02:39;;;;;;;6.07;4.00;;;;;;;4.27;65.13;101561.66;4992712;28;20215;-75
2022/02/13 09:05:07;;;;;;;7.13;3.87;;;;;;;4.19;64.01;101553.66;4991778;28;20210;-75
2022/02/13 09:07:38;;;;;;;6.10;3.80;;;;;;;4.47;63.24;101538.31;4991403;28;20641;-76
2022/02/13 09:10:05;;;;;;;5.80;4.10;;;;;;;5.18;62.64;101515.97;4991535;28;20258;-75
2022/02/13 09:12:30;;;;;;;7.97;4.17;;;;;;;5.41;61.11;101509.50;4992803;28;20306;-75
2022/02/13 09:14:55;;;;;;;5.63;3.37;;;;;;;5.68;59.48;101513.41;4992705;28;20197;-75
2022/02/13 09:17:22;;;;;;;6.10;3.80;;;;;;;7.12;55.58;101502.47;4992604;28;20270;-76
2022/02/13 09:19:47;;;;;;;5.57;3.83;;;;;;;9.19;49.04;101488.72;4989257;28;20234;-76
2022/02/13 09:22:13;;;;;;;8.97;4.23;;;;;;;9.10;48.35;101485.84;4990932;28;20751;-76
2022/02/13 09:24:38;;;;;;;6.33;3.80;;;;;;;9.02;49.31;101479.56;4991330;28;20272;-75
2022/02/13 09:27:03;;;;;;;6.20;4.30;;;;;;;8.93;48.00;101473.25;4992571;28;20222;-76
2022/02/13 09:29:29;;;;;;;8.77;3.90;;;;;;;9.77;45.46;101469.41;4983756;28;20231;-75
2022/02/13 09:31:55;;;;;;;6.13;3.70;;;;;;;10.13;44.02;101462.06;4991043;28;20208;-76
2022/02/13 09:34:25;;;;;;;5.57;3.13;;;;;;;9.71;45.41;101458.97;4992281;28;20662;-75
2022/02/13 09:36:52;;;;;;;4.83;3.63;;;;;;;8.66;47.25;101469.72;4984121;28;20653;-73
2022/02/13 09:39:17;;;;;;;5.47;3.50;;;;;;;8.99;46.70;101461.59;4990878;28;20238;-74
2022/02/13 09:41:43;;;;;;;6.83;3.80;;;;;;;9.33;46.12;101467.06;4991069;28;20705;-74
2022/02/13 09:44:10;;;;;;;4.80;3.73;;;;;;;9.69;45.02;101460.63;4991970;28;20563;-74
2022/02/13 09:46:36;;;;;;;6.13;3.73;;;;;;;10.57;43.58;101446.34;4992090;28;20188;-74
2022/02/13 09:49:02;;;;;;;5.57;3.90;;;;;;;12.21;40.22;101438.69;4991954;28;20192;-74
2022/02/13 09:51:31;;;;;;;6.20;3.90;;;;;;;13.04;38.35;101425.91;4991849;28;20211;-72
2022/02/13 09:53:56;;;;;;;6.27;3.73;;;;;;;13.06;37.96;101428.47;4992049;28;20191;-73
2022/02/13 09:56:21;;;;;;;5.33;3.60;;;;;;;12.23;39.60;101443.03;4992118;28;20274;-73
2022/02/13 09:58:47;;;;;;;6.03;3.43;;;;;;;12.45;38.27;101434.94;4991492;28;20294;-73
2022/02/13 10:01:12;;;;;;;5.43;3.70;;;;;;;12.37;39.36;101426.22;4991829;28;20211;-75
2022/02/13 10:03:40;;;;;;;4.80;4.07;;;;;;;11.60;40.30;101427.81;5006894;28;20223;-75
2022/02/13 10:06:12;;;;;;;6.33;3.67;;;;;;;12.51;38.28;101432.50;5006954;28;20835;-76
2022/02/13 10:08:40;;;;;;;5.70;3.93;;;;;;;10.85;40.50;101441.16;4990370;28;20202;-75
2022/02/13 10:11:29;;;;;;;5.33;3.50;;;;;;;10.94;40.56;101438.84;4990829;28;20215;-74
2022/02/13 10:13:54;;;;;;;6.60;4.03;;;;;;;11.92;39.72;101455.09;4991783;28;20188;-76
2022/02/13 10:16:29;;;;;;;3.93;3.40;;;;;;;11.86;39.41;101445.59;4991686;28;20194;-75
2022/02/13 10:19:05;;;;;;;5.37;3.80;;;;;;;11.14;41.09;101451.38;4990934;28;20218;-75
2022/02/13 10:21:40;;;;;;;6.63;3.90;;;;;;;10.18;41.53;101450.28;4990072;28;20223;-75
2022/02/13 10:24:28;;;;;;;5.73;3.70;;;;;;;10.61;42.19;101441.38;4989965;28;20727;-74
2022/02/13 10:26:53;;;;;;;4.50;3.40;;;;;;;10.32;43.31;101441.34;4991397;28;20785;-75
2022/02/13 10:29:20;;;;;;;5.23;3.33;;;;;;;10.97;41.87;101436.38;4977829;28;20260;-75
2022/02/13 10:31:46;;;;;;;8.53;3.90;;;;;;;10.55;41.82;101437.75;4991192;28;20572;-75
2022/02/13 10:34:13;;;;;;;4.97;3.73;;;;;;;11.73;40.83;101443.56;4989981;28;20202;-75
2022/02/13 10:36:41;;;;;;;5.30;4.03;;;;;;;10.67;41.78;101440.66;4991172;28;20204;-75
2022/02/13 10:39:25;;;;;;;6.57;3.83;;;;;;;10.16;42.20;101441.69;4990920;28;20214;-75
2022/02/13 10:41:52;;;;;;;5.97;4.03;;;;;;;10.25;42.29;101435.16;4990952;28;20347;-74
2022/02/13 10:44:25;;;;;;;7.27;5.27;;;;;;;11.51;40.25;101425.84;4990982;28;20195;-74
2022/02/13 10:46:50;;;;;;;11.60;6.67;;;;;;;11.13;39.92;101426.59;4989775;28;20527;-74
2022/02/13 10:49:15;;;;;;;6.40;4.87;;;;;;;11.92;39.71;101424.31;4989541;28;20180;-75
2022/02/13 10:51:42;;;;;;;4.20;3.50;;;;;;;12.99;37.92;101408.66;4989461;28;20294;-75
2022/02/13 10:54:08;;;;;;;4.57;3.80;;;;;;;13.35;36.50;101407.59;4990853;28;20408;-73
2022/02/13 10:56:35;;;;;;;5.60;4.00;;;;;;;12.68;38.01;101414.88;4990969;28;20199;-73
2022/02/13 10:59:01;;;;;;;6.83;5.23;;;;;;;11.59;39.50;101415.78;4990708;28;20286;-74
2022/02/13 11:01:27;;;;;;;8.00;5.40;;;;;;;11.37;39.43;101416.06;4989235;28;20224;-74
2022/02/13 11:04:03;;;;;;;6.80;4.80;;;;;;;11.04;40.14;101412.66;4990756;28;20227;-74
2022/02/13 11:06:33;;;;;;;5.17;3.80;;;;;;;10.88;40.27;101407.94;4990781;28;20268;-74
2022/02/13 11:09:07;;;;;;;13.37;7.60;;;;;;;11.55;40.13;101398.56;5005490;28;20191;-74
2022/02/13 11:11:33;;;;;;;22.20;10.93;;;;;;;10.38;42.41;101398.88;4990741;28;20578;-74
2022/02/13 11:13:59;;;;;;;8.17;5.50;;;;;;;10.76;42.21;101382.88;4990667;28;20184;-74
2022/02/13 11:16:29;;;;;;;6.23;4.47;;;;;;;10.80;42.00;101394.06;5005008;28;20238;-75
2022/02/13 11:18:58;;;;;;;7.23;6.00;;;;;;;11.27;41.80;101378.22;4983314;28;20804;-75
2022/02/13 11:21:29;;;;;;;12.13;7.30;;;;;;;11.38;40.85;101372.53;4990600;28;20218;-75
2022/02/13 11:23:55;;;;;;;8.63;5.07;;;;;;;12.36;39.16;101364.53;4990183;28;20271;-75